Terminal Aerodrome Forecast
Issued by NWS Corpus Christi, TX

Home | Current Version | Previous Version | Text Only | Print | Product List | Glossary On
Versions: 1 2 3 4 5 6 7 8 9 10 11 12 13 14
000
FTUS44 KCRP 041731
TAFCRP
TAF
KCRP 041731Z 0418/0518 13018G24KT P6SM VCSH SCT030 BKN060
     FM042000 13018G24KT P6SM FEW040 SCT100
     FM050100 13011KT P6SM SCT015 BKN200
     FM050900 14009KT P6SM BKN020
     FM051400 15015G20KT P6SM SCT025=

USA.gov is the U.S. government's official web portal to all federal, state and local government web resources and services.